createdAt,value
2019-04-26T00:04:00.615Z,4.72
2019-04-26T00:09:25.120Z,4.22
2019-04-26T00:14:52.420Z,4.55
2019-04-26T00:19:57.955Z,4.05
2019-04-26T00:25:03.301Z,4.37
2019-04-26T00:30:08.818Z,3.60
2019-04-26T00:35:14.094Z,3.87
2019-04-26T00:40:20.288Z,3.90
2019-04-26T00:45:29.108Z,4.20
2019-04-26T00:50:36.185Z,4.30
2019-04-26T00:55:42.121Z,4.10
2019-04-26T01:00:48.109Z,3.50
2019-04-26T01:06:00.287Z,3.92
2019-04-26T01:11:01.669Z,3.62
2019-04-26T01:16:06.959Z,4.45
2019-04-26T01:21:14.756Z,3.72
2019-04-26T01:26:27.332Z,3.65
2019-04-26T01:31:35.991Z,3.80
2019-04-26T01:36:42.513Z,3.98
2019-04-26T01:41:55.846Z,3.80
2019-04-26T01:47:01.902Z,3.77
2019-04-26T01:52:10.804Z,4.08
2019-04-26T01:57:16.552Z,4.20
2019-04-26T02:02:46.077Z,3.55
2019-04-26T02:07:51.671Z,3.98
2019-04-26T02:12:57.842Z,3.90
2019-04-26T02:18:04.157Z,4.00
2019-04-26T02:23:17.309Z,4.37
2019-04-26T02:28:22.619Z,4.67
2019-04-26T02:33:29.680Z,4.45
2019-04-26T02:38:36.632Z,5.03
2019-04-26T02:43:45.672Z,3.98
2019-04-26T02:49:15.180Z,3.83
2019-04-26T02:54:44.963Z,3.62
2019-04-26T02:59:55.104Z,3.45
2019-04-26T03:05:04.661Z,3.72
2019-04-26T03:10:10.530Z,4.53
2019-04-26T03:15:46.395Z,4.55
2019-04-26T03:20:58.332Z,4.17
2019-04-26T03:26:27.362Z,3.95
2019-04-26T03:31:55.093Z,4.40
2019-04-26T03:37:50.074Z,3.90
2019-04-26T03:43:23.852Z,3.05
2019-04-26T03:48:59.634Z,2.20
2019-04-26T03:54:14.619Z,2.10
2019-04-26T03:59:48.366Z,2.10
2019-04-26T04:05:05.411Z,1.95
2019-04-26T04:10:15.659Z,2.08
2019-04-26T04:15:29.506Z,2.00
2019-04-26T04:21:02.724Z,3.30
2019-04-26T04:26:09.018Z,3.40
2019-04-26T04:31:25.111Z,3.65
2019-04-26T04:36:44.570Z,3.05
2019-04-26T04:42:26.866Z,2.60
2019-04-26T04:47:47.196Z,2.83
2019-04-26T04:53:25.060Z,3.50
2019-04-26T04:58:37.842Z,3.85
2019-04-26T05:04:10.810Z,3.98
2019-04-26T05:09:28.541Z,4.00
2019-04-26T05:15:12.778Z,3.15
2019-04-26T05:20:29.230Z,3.10
2019-04-26T05:26:33.478Z,2.77
2019-04-26T05:31:51.541Z,2.90
2019-04-26T05:37:25.662Z,2.90
2019-04-26T05:43:24.907Z,3.00
2019-04-26T05:48:47.608Z,2.90
2019-04-26T05:54:46.994Z,3.17
2019-04-26T06:00:04.097Z,3.27
2019-04-26T06:05:27.721Z,3.15
2019-04-26T06:11:00.539Z,2.95
2019-04-26T06:16:26.423Z,3.10
2019-04-26T06:21:54.037Z,3.17
2019-04-26T06:27:57.035Z,3.27
2019-04-26T06:33:16.005Z,3.08
2019-04-26T06:39:11.134Z,3.20
2019-04-26T06:44:21.116Z,3.20
2019-04-26T06:50:15.022Z,3.10
2019-04-26T06:55:43.885Z,3.12
2019-04-26T07:01:15.029Z,3.22
2019-04-26T07:06:34.846Z,3.22
2019-04-26T07:12:37.593Z,3.08
2019-04-26T07:18:22.320Z,3.20
2019-04-26T07:24:13.341Z,3.12
2019-04-26T07:29:56.433Z,3.45
2019-04-26T07:35:14.449Z,3.50
2019-04-26T07:41:29.078Z,3.50
2019-04-26T07:47:21.158Z,3.25
2019-04-26T07:52:55.962Z,3.25
2019-04-26T07:58:48.040Z,3.70
2019-04-26T08:04:03.771Z,3.20
2019-04-26T08:09:26.020Z,3.45
2019-04-26T08:14:25.013Z,3.52
2019-04-26T08:19:33.651Z,3.65
2019-04-26T08:24:41.425Z,3.50
2019-04-26T08:29:49.137Z,3.30
2019-04-26T08:35:02.327Z,3.40
2019-04-26T08:40:08.419Z,3.20
2019-04-26T08:45:27.310Z,3.35
2019-04-26T08:50:45.898Z,3.40
2019-04-26T08:55:52.585Z,3.30
2019-04-26T09:01:09.694Z,3.22
2019-04-26T09:06:30.538Z,3.10
2019-04-26T09:11:37.043Z,3.37
2019-04-26T09:16:50.154Z,3.35
2019-04-26T09:22:12.485Z,3.05
2019-04-26T09:27:40.561Z,3.15
2019-04-26T09:32:50.514Z,3.42
2019-04-26T09:37:56.601Z,3.52
2019-04-26T09:43:16.603Z,3.60
2019-04-26T09:48:25.909Z,3.75
2019-04-26T09:53:31.277Z,4.33
2019-04-26T09:58:36.515Z,3.80
2019-04-26T10:03:41.790Z,4.10
2019-04-26T10:08:48.155Z,4.22
2019-04-26T10:14:21.704Z,4.30
2019-04-26T10:19:34.993Z,4.72
2019-04-26T10:24:40.648Z,4.80
2019-04-26T10:29:46.191Z,4.60
2019-04-26T10:34:51.454Z,4.72
2019-04-26T10:39:56.682Z,4.50
2019-04-26T10:45:01.928Z,4.60
2019-04-26T10:50:08.058Z,3.67
2019-04-26T10:55:31.691Z,4.05
2019-04-26T11:00:40.297Z,3.90
2019-04-26T11:05:49.402Z,3.58
2019-04-26T11:10:53.211Z,3.65
2019-04-26T11:15:58.447Z,4.20
2019-04-26T11:21:04.149Z,4.50
2019-04-26T11:26:09.490Z,4.37
2019-04-26T11:31:14.845Z,4.75
2019-04-26T11:36:20.088Z,4.87
2019-04-26T11:41:25.352Z,5.50
2019-04-26T11:46:30.600Z,6.00
2019-04-26T11:51:35.839Z,6.78
2019-04-26T11:56:41.092Z,7.12
2019-04-26T12:01:46.361Z,7.87
2019-04-26T12:06:56.129Z,7.78
2019-04-26T12:12:04.839Z,8.33
2019-04-26T12:17:08.698Z,9.60
2019-04-26T12:22:13.959Z,10.68
2019-04-26T12:27:19.454Z,11.18
2019-04-26T12:32:24.828Z,12.13
2019-04-26T12:37:30.463Z,15.15
2019-04-26T12:42:35.711Z,15.78
2019-04-26T12:47:44.756Z,16.48
2019-04-26T12:52:51.474Z,16.85
2019-04-26T12:57:58.084Z,19.75
2019-04-26T13:03:05.369Z,19.45
2019-04-26T13:08:13.212Z,20.90
2019-04-26T13:13:22.375Z,22.80
2019-04-26T13:18:27.653Z,21.57
2019-04-26T13:23:33.005Z,21.12
2019-04-26T13:28:38.270Z,20.15
2019-04-26T13:33:43.533Z,18.85
2019-04-26T13:38:49.572Z,18.20
2019-04-26T13:43:57.129Z,18.98
2019-04-26T13:49:08.085Z,17.80
2019-04-26T13:54:16.437Z,17.80
2019-04-26T13:59:20.630Z,18.20
2019-04-26T14:04:26.249Z,17.15
2019-04-26T14:09:31.935Z,16.80
2019-04-26T14:14:37.200Z,16.87
2019-04-26T14:19:45.278Z,16.57
2019-04-26T14:24:58.285Z,17.40
2019-04-26T14:30:06.520Z,18.07
2019-04-26T14:35:11.542Z,16.37
2019-04-26T14:40:18.912Z,18.23
2019-04-26T14:45:24.346Z,19.27
2019-04-26T14:50:31.987Z,16.73
2019-04-26T14:55:37.871Z,19.12
2019-04-26T15:00:44.993Z,17.20
2019-04-26T15:06:03.038Z,16.07
2019-04-26T15:11:08.348Z,17.37
2019-04-26T15:16:14.451Z,16.95
2019-04-26T15:21:19.795Z,16.65
2019-04-26T15:26:29.601Z,17.77
2019-04-26T15:31:33.099Z,16.75
2019-04-26T15:36:38.851Z,17.52
2019-04-26T15:41:54.374Z,15.85
2019-04-26T15:47:13.111Z,14.00
2019-04-26T15:52:18.487Z,13.88
2019-04-26T15:57:30.016Z,14.73
2019-04-26T16:02:32.132Z,14.73
2019-04-26T16:07:38.347Z,13.45
2019-04-26T16:12:43.683Z,13.32
2019-04-26T16:17:49.879Z,12.75
2019-04-26T16:22:55.290Z,8.95
2019-04-26T16:28:30.876Z,9.00
2019-04-26T16:33:37.049Z,8.80
2019-04-26T16:38:48.610Z,7.03
2019-04-26T16:43:53.585Z,7.83
2019-04-26T16:49:03.733Z,8.15
2019-04-26T16:54:11.148Z,7.00
2019-04-26T16:59:22.668Z,7.10
2019-04-26T17:04:31.801Z,7.70
2019-04-26T17:09:54.826Z,7.28
2019-04-26T17:14:40.706Z,6.60
2019-04-26T17:19:47.440Z,6.08
2019-04-26T17:25:08.913Z,5.83
2019-04-26T17:30:20.021Z,6.55
2019-04-26T17:35:25.544Z,7.15
2019-04-26T17:40:36.184Z,6.65
2019-04-26T17:45:40.904Z,7.17
2019-04-26T17:50:45.326Z,6.37
2019-04-26T17:55:54.411Z,6.08
2019-04-26T18:01:01.037Z,6.03
2019-04-26T18:06:04.817Z,7.37
2019-04-26T18:11:18.886Z,6.58
2019-04-26T18:16:17.843Z,6.10
2019-04-26T18:21:43.761Z,5.08
2019-04-26T18:26:54.041Z,5.37
2019-04-26T18:31:59.123Z,4.67
2019-04-26T18:37:06.921Z,5.17
2019-04-26T18:42:09.920Z,6.70
2019-04-26T18:47:27.594Z,5.62
2019-04-26T18:52:30.921Z,7.42
2019-04-26T18:57:36.220Z,8.53
2019-04-26T19:02:42.882Z,7.75
2019-04-26T19:07:50.076Z,7.47
2019-04-26T19:13:00.035Z,6.92
2019-04-26T19:18:23.030Z,8.13
2019-04-26T19:23:29.172Z,8.63
2019-04-26T19:28:36.002Z,10.05
2019-04-26T19:33:42.898Z,9.33
2019-04-26T19:38:51.205Z,9.15
2019-04-26T19:43:56.586Z,9.10
2019-04-26T19:49:21.485Z,8.28
2019-04-26T19:54:37.068Z,7.83
2019-04-26T19:59:38.802Z,7.58
2019-04-26T20:04:44.280Z,8.68
2019-04-26T20:09:49.829Z,8.25
2019-04-26T20:14:58.440Z,9.90
2019-04-26T20:20:02.432Z,8.58
2019-04-26T20:25:11.772Z,8.15
2019-04-26T20:30:27.772Z,7.20
2019-04-26T20:35:32.912Z,6.83
2019-04-26T20:40:38.178Z,6.70
2019-04-26T20:46:07.909Z,6.47
2019-04-26T20:50:52.050Z,6.15
2019-04-26T20:55:57.939Z,6.53
2019-04-26T21:01:06.309Z,6.05
2019-04-26T21:06:11.672Z,5.70
2019-04-26T21:11:17.284Z,5.00
2019-04-26T21:16:22.529Z,4.75
2019-04-26T21:21:27.763Z,4.78
2019-04-26T21:26:54.460Z,4.78
2019-04-26T21:32:16.363Z,4.72
2019-04-26T21:37:43.210Z,5.05
2019-04-26T21:42:49.268Z,5.20
2019-04-26T21:47:54.696Z,5.47
2019-04-26T21:53:03.373Z,4.70
2019-04-26T21:58:07.863Z,4.65
2019-04-26T22:03:16.034Z,5.33
2019-04-26T22:08:24.976Z,5.17
2019-04-26T22:13:37.320Z,4.33
2019-04-26T22:19:12.767Z,4.63
2019-04-26T22:24:33.762Z,4.47
2019-04-26T22:29:39.102Z,5.17
2019-04-26T22:34:46.175Z,5.28
2019-04-26T22:39:51.271Z,5.28
2019-04-26T22:45:09.400Z,5.40
2019-04-26T22:50:20.871Z,5.83
2019-04-26T22:55:26.135Z,5.53
2019-04-26T23:00:33.022Z,6.12
2019-04-26T23:05:39.195Z,6.20
2019-04-26T23:10:48.071Z,7.37
2019-04-26T23:16:11.462Z,7.17
2019-04-26T23:21:28.242Z,8.37
2019-04-26T23:26:33.541Z,8.53
2019-04-26T23:31:41.679Z,9.23
2019-04-26T23:36:49.183Z,10.03
2019-04-26T23:41:53.961Z,10.48
2019-04-26T23:47:01.139Z,12.07
2019-04-26T23:52:06.654Z,11.50
2019-04-26T23:57:13.799Z,11.55
